Aérodrome :
LOGIN :

S'inscrire | Disclaimer

   EN    FR    IT 

 










Légende :    VFR   VFR Marginal   IFR   IFR Intensif   IFR Très Intensif
Visi : 
Plafond : 
>= 8 km
>= 3000ft
5 à 8 km
1000 à 3000 ft
1500m à 5 km
500 à 1000 ft
800 à 1500m
200 à 500 ft
< 800m
< 200 ft
Symboles :   Orages  Brouillard  Fortes neiges  Fortes précipitations  Vent > 20 kt
SIGMETs :   Divers  Orages  Givrage  Turbulence  Onde Orograph.  Cendres Volcan.






- Altitude de l'aérodrome : 390 ft
- Code IATA : NQY


EGHQ - Newquay

DERNIER METAR :
  • 202220Z AUTO 32009KT 9999 OVC009/// 16/15 Q1009

METARs EXPIRÉS :
  • 202150Z AUTO 33009KT 9999 BKN009/// 16/15 Q1009
  • 202120Z AUTO 32008KT 9999 BKN009/// BKN035/// 16/15 Q1009
  • 202050Z AUTO 32010KT 9999 OVC009/// 15/14 Q1009 REDZ
  • 202020Z AUTO 32010KT 9999 BKN005/// 15/14 Q1008 REDZ
  • 201950Z AUTO 32011KT 3700 -DZ BKN005/// 15/15 Q1008
  • 201920Z AUTO 33010KT 9999 OVC006/// 16/15 Q1007 REDZ
  • 201850Z 34009KT 9999 4500S BKN006 16/15 Q1007 REDZ
  • 201820Z 33007KT 9999 4000SW -DZ BKN003 16/16 Q1007
  • 201750Z 35005KT 9999 -DZ BKN006 16/16 Q1007

TAF TAF EGHQ
Valide du 20 à 21h jusqu'au 21 à 06h UTC


201959Z 2021/2106 32009KT 9999 BKN005
BECMG 2021/2024 SCT010
PROB30
TEMPO 2021/2103 6000 -RADZ
PROB30
TEMPO 2021/2022 BKN004
TEMPO 2100/2103 BKN008



MET'MAP, la Météo Aéronautique d'un coup d'oeil ! - Copyright ORBIFLY Décembre 2007 - Disclaimer

ORBIFLY MET'MAP TEAM :

Programmation & Développement : Alexandra Zaïnal
Sur une idée originale de : Baudouin d'Aumeries
Soutien technique & logistique : Manuel Goepfert
Assistance : Marc-Olivier Méhu




SOURCES & CREDITS :

   NOAA